Cheryl Stegbauer — WYN6276 — position and weather

sailwx.info

Track history (hours):
 
Tides and Currents Weather Stations Pressure Air Temp Water Temp Dewpoint Dewpoint Depression Visibility Wind Speed Wind Dir Waves Ship Positions

Cheryl Stegbauer

Owner: SOUTHERN TOWING COMPANY LLC., MEMPHIS, TN. More information available from US FCC via Universal Licensing System and Coast Guard Vessel Documentation Center.

Last reported at 2017-Aug-26 01:12 UTC. Time now 2017-Sep-23 23:40 UTC.
Position N 32°45' W 091°09'.
Warning: this ship's position is 28 days out of date.

Length 35 m; draft 2.6 m.

Type: Towing. MMSI: 366917160.

Date/timePositionNaut miles runAvg speedWind from/ knotsBaromVisibWave heightAir tempDewpointWater temp
2017-Aug-26 01:12N 32°45' W 091°09'5 1.3
2017-Aug-25 21:28N 32°40' W 091°08'2 3.4
2017-Aug-25 20:45N 32°38' W 091°09'1 2.8
2017-Aug-25 20:31N 32°37' W 091°09'2 3.8
2017-Aug-25 20:00N 32°36' W 091°08'2 3.9
2017-Aug-25 19:30N 32°34' W 091°07'2 3.3
2017-Aug-25 18:54N 32°32' W 091°06'2 4.2
2017-Aug-25 18:30N 32°31' W 091°07'2 4.5
2017-Aug-25 18:00N 32°29' W 091°07'0 0.1
2017-Aug-25 17:31N 32°29' W 091°07'0 0.0
2017-Aug-25 17:00N 32°29' W 091°07'0 0.0
2017-Aug-25 16:31N 32°29' W 091°07'0 0.0
2017-Aug-25 16:00N 32°29' W 091°07'0 0.0
2017-Aug-25 15:30N 32°29' W 091°07'0 0.0
2017-Aug-25 15:00N 32°29' W 091°07'4 4.3
2017-Aug-25 14:00N 32°26' W 091°03'2 4.6
2017-Aug-25 13:30N 32°25' W 091°00'2 3.8
2017-Aug-25 13:00N 32°24' W 090°60'2 4.6
2017-Aug-25 12:30N 32°21' W 090°60'2 4.6
2017-Aug-25 12:00N 32°21' W 090°57'0 0.6
2017-Aug-25 11:30N 32°21' W 090°57'0 0.5
2017-Aug-25 11:00N 32°21' W 090°57'1 2.5
2017-Aug-25 10:30N 32°21' W 090°55'2 3.3
2017-Aug-25 10:00N 32°19' W 090°54'2 3.5
2017-Aug-25 09:30N 32°18' W 090°55'0 0.1
2017-Aug-25 09:00N 32°18' W 090°55'0 0.3
2017-Aug-25 08:30N 32°18' W 090°55'2 4.0
2017-Aug-25 08:00N 32°17' W 090°57'2 3.3
2017-Aug-25 07:30N 32°15' W 090°58'2 3.6
2017-Aug-25 07:00N 32°14' W 090°59'2 4.0
2017-Aug-25 06:29N 32°12' W 090°60'2 3.7
2017-Aug-25 06:00N 32°10' W 091°00'2 3.9
2017-Aug-25 05:30N 32°08' W 091°00'2 3.3
2017-Aug-25 05:00N 32°07' W 091°02'3 4.1
2017-Aug-25 04:17N 32°08' W 091°05'1 3.7
2017-Aug-25 04:00N 32°08' W 091°06'5 3.9
2017-Aug-25 02:42N 32°03' W 091°03'1 4.5
2017-Aug-25 02:24N 32°02' W 091°04'1 3.6
2017-Aug-25 02:00N 32°01' W 091°05'  
2017-Aug-20 08:03N 31°42' W 091°24'11 7.6
2017-Aug-20 06:37N 31°51' W 091°19'7 8.2
2017-Aug-20 05:45N 31°55' W 091°12'2 9.4
2017-Aug-20 05:30N 31°58' W 091°11'4 8.2
2017-Aug-20 05:00N 31°59' W 091°07'4 8.5
2017-Aug-20 04:30N 32°02' W 091°04'5 8.1
2017-Aug-20 03:57N 32°06' W 091°06'2 5.3
2017-Aug-20 03:30N 32°08' W 091°04'4 7.0
2017-Aug-20 03:00N 32°09' W 091°00'4 8.7
2017-Aug-20 02:30N 32°14' W 090°59'4 8.6
2017-Aug-20 02:00N 32°17' W 090°56'3 6.0
2017-Aug-20 01:30N 32°19' W 090°54'4 7.3
2017-Aug-20 01:00N 32°21' W 090°58'3 6.2
2017-Aug-20 00:30N 32°24' W 090°59'4 7.8
2017-Aug-20 00:00N 32°26' W 091°03'4 8.4
2017-Aug-19 23:30N 32°29' W 091°07'4 8.8
2017-Aug-19 23:00N 32°33' W 091°06'4 8.4
2017-Aug-19 22:30N 32°37' W 091°09'  
Track history (hours):
 
Tides and Currents Weather Stations Pressure Air Temp Water Temp Dewpoint Dewpoint Depression Visibility Wind Speed Wind Dir Waves Ship Positions

Cheryl Stegbauer

Owner: SOUTHERN TOWING COMPANY LLC., MEMPHIS, TN. More information available from US FCC via Universal Licensing System and Coast Guard Vessel Documentation Center.

Last reported at 2017-Aug-26 01:12 UTC. Time now 2017-Sep-23 23:40 UTC.
Position N 32°45' W 091°09'.
Warning: this ship's position is 28 days out of date.

Length 35 m; draft 2.6 m.

Type: Towing. MMSI: 366917160.

Date/timePositionNaut miles runAvg speedWind from/ knotsBaromVisibWave heightAir tempDewpointWater temp
2017-Aug-26 01:12N 32°45' W 091°09'5 1.3
2017-Aug-25 21:28N 32°40' W 091°08'2 3.4
2017-Aug-25 20:45N 32°38' W 091°09'1 2.8
2017-Aug-25 20:31N 32°37' W 091°09'2 3.8
2017-Aug-25 20:00N 32°36' W 091°08'2 3.9
2017-Aug-25 19:30N 32°34' W 091°07'2 3.3
2017-Aug-25 18:54N 32°32' W 091°06'2 4.2
2017-Aug-25 18:30N 32°31' W 091°07'2 4.5
2017-Aug-25 18:00N 32°29' W 091°07'0 0.1
2017-Aug-25 17:31N 32°29' W 091°07'0 0.0
2017-Aug-25 17:00N 32°29' W 091°07'0 0.0
2017-Aug-25 16:31N 32°29' W 091°07'0 0.0
2017-Aug-25 16:00N 32°29' W 091°07'0 0.0
2017-Aug-25 15:30N 32°29' W 091°07'0 0.0
2017-Aug-25 15:00N 32°29' W 091°07'4 4.3
2017-Aug-25 14:00N 32°26' W 091°03'2 4.6
2017-Aug-25 13:30N 32°25' W 091°00'2 3.8
2017-Aug-25 13:00N 32°24' W 090°60'2 4.6
2017-Aug-25 12:30N 32°21' W 090°60'2 4.6
2017-Aug-25 12:00N 32°21' W 090°57'0 0.6
2017-Aug-25 11:30N 32°21' W 090°57'0 0.5
2017-Aug-25 11:00N 32°21' W 090°57'1 2.5
2017-Aug-25 10:30N 32°21' W 090°55'2 3.3
2017-Aug-25 10:00N 32°19' W 090°54'2 3.5
2017-Aug-25 09:30N 32°18' W 090°55'0 0.1
2017-Aug-25 09:00N 32°18' W 090°55'0 0.3
2017-Aug-25 08:30N 32°18' W 090°55'2 4.0
2017-Aug-25 08:00N 32°17' W 090°57'2 3.3
2017-Aug-25 07:30N 32°15' W 090°58'2 3.6
2017-Aug-25 07:00N 32°14' W 090°59'2 4.0
2017-Aug-25 06:29N 32°12' W 090°60'2 3.7
2017-Aug-25 06:00N 32°10' W 091°00'2 3.9
2017-Aug-25 05:30N 32°08' W 091°00'2 3.3
2017-Aug-25 05:00N 32°07' W 091°02'3 4.1
2017-Aug-25 04:17N 32°08' W 091°05'1 3.7
2017-Aug-25 04:00N 32°08' W 091°06'5 3.9
2017-Aug-25 02:42N 32°03' W 091°03'1 4.5
2017-Aug-25 02:24N 32°02' W 091°04'1 3.6
2017-Aug-25 02:00N 32°01' W 091°05'  
2017-Aug-20 08:03N 31°42' W 091°24'11 7.6
2017-Aug-20 06:37N 31°51' W 091°19'7 8.2
2017-Aug-20 05:45N 31°55' W 091°12'2 9.4
2017-Aug-20 05:30N 31°58' W 091°11'4 8.2
2017-Aug-20 05:00N 31°59' W 091°07'4 8.5
2017-Aug-20 04:30N 32°02' W 091°04'5 8.1
2017-Aug-20 03:57N 32°06' W 091°06'2 5.3
2017-Aug-20 03:30N 32°08' W 091°04'4 7.0
2017-Aug-20 03:00N 32°09' W 091°00'4 8.7
2017-Aug-20 02:30N 32°14' W 090°59'4 8.6
2017-Aug-20 02:00N 32°17' W 090°56'3 6.0
2017-Aug-20 01:30N 32°19' W 090°54'4 7.3
2017-Aug-20 01:00N 32°21' W 090°58'3 6.2
2017-Aug-20 00:30N 32°24' W 090°59'4 7.8
2017-Aug-20 00:00N 32°26' W 091°03'4 8.4
2017-Aug-19 23:30N 32°29' W 091°07'4 8.8
2017-Aug-19 23:00N 32°33' W 091°06'4 8.4
2017-Aug-19 22:30N 32°37' W 091°09'  

Dump ship's entire track history